sensor_id;sensor_type;location;lat;lon;timestamp;pressure;altitude;pressure_sealevel;temperature;humidity
20043;BME280;10182;52.896;6.496;2023-05-19T00:03:32;102768.19;;;7.46;100.00
20043;BME280;10182;52.896;6.496;2023-05-19T00:08:37;102771.72;;;7.45;100.00
20043;BME280;10182;52.896;6.496;2023-05-19T00:13:40;102762.94;;;7.40;100.00
20043;BME280;10182;52.896;6.496;2023-05-19T00:18:44;102764.72;;;7.30;100.00
20043;BME280;10182;52.896;6.496;2023-05-19T00:23:47;102767.34;;;7.33;100.00
20043;BME280;10182;52.896;6.496;2023-05-19T00:28:51;102749.78;;;7.37;100.00
20043;BME280;10182;52.896;6.496;2023-05-19T00:33:53;102742.75;;;7.34;100.00
20043;BME280;10182;52.896;6.496;2023-05-19T00:38:55;102748.91;;;7.28;100.00
20043;BME280;10182;52.896;6.496;2023-05-19T00:43:58;102752.41;;;7.27;100.00
20043;BME280;10182;52.896;6.496;2023-05-19T00:49:00;102741.84;;;7.34;100.00
20043;BME280;10182;52.896;6.496;2023-05-19T00:54:02;102737.44;;;7.31;100.00
20043;BME280;10182;52.896;6.496;2023-05-19T00:59:05;102738.34;;;7.32;100.00
20043;BME280;10182;52.896;6.496;2023-05-19T01:04:07;102735.72;;;7.30;100.00
20043;BME280;10182;52.896;6.496;2023-05-19T01:09:09;102732.19;;;7.33;100.00
20043;BME280;10182;52.896;6.496;2023-05-19T01:14:13;102735.72;;;7.33;100.00
20043;BME280;10182;52.896;6.496;2023-05-19T01:19:29;102733.94;;;7.32;100.00
20043;BME280;10182;52.896;6.496;2023-05-19T01:24:55;102735.69;;;7.35;100.00
20043;BME280;10182;52.896;6.496;2023-05-19T01:35:47;102726.06;;;7.26;100.00
20043;BME280;10182;52.896;6.496;2023-05-19T01:40:50;102722.53;;;7.24;100.00
20043;BME280;10182;52.896;6.496;2023-05-19T01:45:53;102730.44;;;7.24;100.00
20043;BME280;10182;52.896;6.496;2023-05-19T01:50:59;102711.13;;;7.14;100.00
20043;BME280;10182;52.896;6.496;2023-05-19T01:56:01;102719.91;;;6.98;100.00
20043;BME280;10182;52.896;6.496;2023-05-19T02:01:09;102710.25;;;6.97;100.00
20043;BME280;10182;52.896;6.496;2023-05-19T02:06:21;102712.03;;;6.93;100.00
20043;BME280;10182;52.896;6.496;2023-05-19T02:11:34;102713.75;;;6.92;100.00
20043;BME280;10182;52.896;6.496;2023-05-19T02:16:37;102712.03;;;6.94;100.00
20043;BME280;10182;52.896;6.496;2023-05-19T02:21:43;102712.00;;;6.88;100.00
20043;BME280;10182;52.896;6.496;2023-05-19T02:26:45;102708.50;;;6.77;100.00
20043;BME280;10182;52.896;6.496;2023-05-19T02:31:47;102711.13;;;6.69;100.00
20043;BME280;10182;52.896;6.496;2023-05-19T02:36:51;102704.97;;;6.64;100.00
20043;BME280;10182;52.896;6.496;2023-05-19T02:41:53;102708.47;;;6.68;100.00
20043;BME280;10182;52.896;6.496;2023-05-19T02:46:55;102697.97;;;6.74;100.00
20043;BME280;10182;52.896;6.496;2023-05-19T02:51:58;102697.09;;;6.78;100.00
20043;BME280;10182;52.896;6.496;2023-05-19T02:57:00;102693.56;;;6.64;100.00
20043;BME280;10182;52.896;6.496;2023-05-19T03:02:02;102686.53;;;6.59;100.00
20043;BME280;10182;52.896;6.496;2023-05-19T03:07:05;102688.28;;;6.51;100.00
20043;BME280;10182;52.896;6.496;2023-05-19T03:12:07;102689.16;;;6.47;100.00
20043;BME280;10182;52.896;6.496;2023-05-19T03:17:08;102690.03;;;6.44;100.00
20043;BME280;10182;52.896;6.496;2023-05-19T03:22:11;102696.19;;;6.47;100.00
20043;BME280;10182;52.896;6.496;2023-05-19T03:27:13;102690.91;;;6.48;100.00
20043;BME280;10182;52.896;6.496;2023-05-19T03:32:15;102697.91;;;6.49;100.00
20043;BME280;10182;52.896;6.496;2023-05-19T03:37:18;102690.91;;;6.48;100.00
20043;BME280;10182;52.896;6.496;2023-05-19T03:42:20;102690.00;;;6.49;100.00
20043;BME280;10182;52.896;6.496;2023-05-19T03:47:22;102686.50;;;6.52;100.00
20043;BME280;10182;52.896;6.496;2023-05-19T03:52:25;102697.94;;;6.57;100.00
20043;BME280;10182;52.896;6.496;2023-05-19T03:57:27;102702.34;;;6.66;100.00
20043;BME280;10182;52.896;6.496;2023-05-19T04:02:29;102703.22;;;6.69;100.00
20043;BME280;10182;52.896;6.496;2023-05-19T04:07:32;102701.47;;;6.70;100.00
20043;BME280;10182;52.896;6.496;2023-05-19T04:12:33;102705.00;;;6.81;100.00
20043;BME280;10182;52.896;6.496;2023-05-19T04:17:35;102707.63;;;6.92;100.00
20043;BME280;10182;52.896;6.496;2023-05-19T04:22:38;102705.84;;;7.16;100.00
20043;BME280;10182;52.896;6.496;2023-05-19T04:27:40;102712.84;;;7.40;100.00
20043;BME280;10182;52.896;6.496;2023-05-19T04:32:42;102707.50;;;7.57;100.00
20043;BME280;10182;52.896;6.496;2023-05-19T04:37:45;102705.69;;;7.77;100.00
20043;BME280;10182;52.896;6.496;2023-05-19T04:42:47;102689.84;;;7.84;100.00
20043;BME280;10182;52.896;6.496;2023-05-19T04:47:51;102688.88;;;8.08;100.00
20043;BME280;10182;52.896;6.496;2023-05-19T04:53:00;102687.06;;;8.13;100.00
20043;BME280;10182;52.896;6.496;2023-05-19T04:58:02;102690.47;;;8.32;100.00
20043;BME280;10182;52.896;6.496;2023-05-19T05:03:03;102684.28;;;8.36;100.00
20043;BME280;10182;52.896;6.496;2023-05-19T05:08:08;102683.31;;;8.57;100.00
20043;BME280;10182;52.896;6.496;2023-05-19T05:13:11;102684.00;;;8.79;100.00
20043;BME280;10182;52.896;6.496;2023-05-19T05:18:13;102682.94;;;9.01;100.00
20043;BME280;10182;52.896;6.496;2023-05-19T05:23:17;102688.19;;;9.05;100.00
20043;BME280;10182;52.896;6.496;2023-05-19T05:28:19;102682.91;;;9.05;100.00
20043;BME280;10182;52.896;6.496;2023-05-19T05:33:20;102688.13;;;9.10;100.00
20043;BME280;10182;52.896;6.496;2023-05-19T05:38:25;102693.19;;;9.33;100.00
20043;BME280;10182;52.896;6.496;2023-05-19T05:43:27;102683.25;;;9.57;100.00
20043;BME280;10182;52.896;6.496;2023-05-19T05:48:29;102682.31;;;9.61;100.00
20043;BME280;10182;52.896;6.496;2023-05-19T05:53:34;102684.66;;;9.86;100.00
20043;BME280;10182;52.896;6.496;2023-05-19T05:58:37;102687.38;;;9.79;100.00
20043;BME280;10182;52.896;6.496;2023-05-19T06:03:40;102695.13;;;9.95;100.00
20043;BME280;10182;52.896;6.496;2023-05-19T06:08:45;102692.22;;;10.13;100.00
20043;BME280;10182;52.896;6.496;2023-05-19T06:13:46;102691.06;;;10.33;100.00
20043;BME280;10182;52.896;6.496;2023-05-19T06:18:48;102697.88;;;10.51;100.00
20043;BME280;10182;52.896;6.496;2023-05-19T06:23:51;102689.69;;;10.68;100.00
20043;BME280;10182;52.896;6.496;2023-05-19T06:28:53;102692.00;;;10.87;100.00
20043;BME280;10182;52.896;6.496;2023-05-19T06:33:54;102689.94;;;11.04;100.00
20043;BME280;10182;52.896;6.496;2023-05-19T06:38:57;102688.00;;;11.15;100.00
20043;BME280;10182;52.896;6.496;2023-05-19T06:43:59;102691.41;;;11.22;100.00
20043;BME280;10182;52.896;6.496;2023-05-19T06:49:01;102691.03;;;11.42;100.00
20043;BME280;10182;52.896;6.496;2023-05-19T06:54:04;102687.19;;;11.57;100.00
20043;BME280;10182;52.896;6.496;2023-05-19T06:59:05;102684.06;;;11.80;100.00
20043;BME280;10182;52.896;6.496;2023-05-19T07:04:07;102687.94;;;12.08;100.00
20043;BME280;10182;52.896;6.496;2023-05-19T07:09:11;102690.47;;;12.14;100.00
20043;BME280;10182;52.896;6.496;2023-05-19T07:14:13;102684.59;;;12.39;100.00
20043;BME280;10182;52.896;6.496;2023-05-19T07:19:14;102684.31;;;12.51;100.00
20043;BME280;10182;52.896;6.496;2023-05-19T07:24:20;102682.38;;;12.58;100.00
20043;BME280;10182;52.896;6.496;2023-05-19T07:29:22;102683.41;;;12.88;100.00
20043;BME280;10182;52.896;6.496;2023-05-19T07:34:23;102683.88;;;13.04;100.00
20043;BME280;10182;52.896;6.496;2023-05-19T07:39:26;102688.66;;;13.24;100.00
20043;BME280;10182;52.896;6.496;2023-05-19T07:44:29;102681.38;;;13.31;100.00
20043;BME280;10182;52.896;6.496;2023-05-19T07:49:31;102672.91;;;13.49;100.00
20043;BME280;10182;52.896;6.496;2023-05-19T07:54:34;102682.25;;;13.64;100.00
20043;BME280;10182;52.896;6.496;2023-05-19T07:59:36;102676.88;;;13.66;100.00
20043;BME280;10182;52.896;6.496;2023-05-19T08:04:37;102676.69;;;13.72;100.00
20043;BME280;10182;52.896;6.496;2023-05-19T08:09:40;102671.50;;;13.67;100.00
20043;BME280;10182;52.896;6.496;2023-05-19T08:14:42;102665.03;;;13.76;100.00
20043;BME280;10182;52.896;6.496;2023-05-19T08:19:44;102666.66;;;14.10;100.00
20043;BME280;10182;52.896;6.496;2023-05-19T08:24:47;102668.38;;;14.41;100.00
20043;BME280;10182;52.896;6.496;2023-05-19T08:29:51;102661.50;;;14.61;100.00
20043;BME280;10182;52.896;6.496;2023-05-19T08:34:54;102656.25;;;14.86;100.00
20043;BME280;10182;52.896;6.496;2023-05-19T08:39:57;102644.38;;;14.95;91.10
20043;BME280;10182;52.896;6.496;2023-05-19T08:44:59;102635.34;;;14.99;83.19
20043;BME280;10182;52.896;6.496;2023-05-19T08:50:03;102642.31;;;15.03;92.07
20043;BME280;10182;52.896;6.496;2023-05-19T08:55:13;102630.69;;;14.79;84.71
20043;BME280;10182;52.896;6.496;2023-05-19T09:00:17;102627.03;;;15.32;86.35
20043;BME280;10182;52.896;6.496;2023-05-19T09:05:20;102623.28;;;15.37;77.20
20043;BME280;10182;52.896;6.496;2023-05-19T09:10:23;102617.97;;;15.12;78.45
20043;BME280;10182;52.896;6.496;2023-05-19T09:15:25;102618.81;;;15.38;79.83
20043;BME280;10182;52.896;6.496;2023-05-19T09:20:29;102620.31;;;15.21;71.20
20043;BME280;10182;52.896;6.496;2023-05-19T09:25:32;102618.13;;;15.33;74.87
20043;BME280;10182;52.896;6.496;2023-05-19T09:30:34;102602.41;;;15.49;80.24
20043;BME280;10182;52.896;6.496;2023-05-19T09:35:36;102599.03;;;15.44;74.57
20043;BME280;10182;52.896;6.496;2023-05-19T09:40:39;102584.44;;;15.29;73.56
20043;BME280;10182;52.896;6.496;2023-05-19T09:45:41;102585.16;;;15.34;91.66
20043;BME280;10182;52.896;6.496;2023-05-19T09:50:42;102579.13;;;15.74;74.73
20043;BME280;10182;52.896;6.496;2023-05-19T09:55:48;102585.75;;;15.88;72.17
20043;BME280;10182;52.896;6.496;2023-05-19T10:00:52;102584.97;;;16.08;66.36
20043;BME280;10182;52.896;6.496;2023-05-19T10:05:54;102585.44;;;16.18;67.86
20043;BME280;10182;52.896;6.496;2023-05-19T10:10:58;102576.25;;;16.46;65.45
20043;BME280;10182;52.896;6.496;2023-05-19T10:16:00;102571.72;;;16.48;63.43
20043;BME280;10182;52.896;6.496;2023-05-19T10:21:02;102565.63;;;16.44;60.61
20043;BME280;10182;52.896;6.496;2023-05-19T10:26:06;102567.91;;;16.74;62.34
20043;BME280;10182;52.896;6.496;2023-05-19T10:31:12;102559.03;;;16.73;61.01
20043;BME280;10182;52.896;6.496;2023-05-19T10:36:41;102553.84;;;16.91;62.88
20043;BME280;10182;52.896;6.496;2023-05-19T10:42:00;102549.09;;;16.98;59.36
20043;BME280;10182;52.896;6.496;2023-05-19T10:47:05;102533.06;;;16.96;57.73
20043;BME280;10182;52.896;6.496;2023-05-19T10:52:18;102533.38;;;16.90;56.27
20043;BME280;10182;52.896;6.496;2023-05-19T10:57:25;102539.78;;;17.25;54.57
20043;BME280;10182;52.896;6.496;2023-05-19T11:02:38;102529.56;;;17.34;57.19
20043;BME280;10182;52.896;6.496;2023-05-19T11:07:40;102519.00;;;17.69;60.01
20043;BME280;10182;52.896;6.496;2023-05-19T11:12:45;102526.47;;;17.62;56.72
20043;BME280;10182;52.896;6.496;2023-05-19T11:17:47;102526.03;;;17.52;53.81
20043;BME280;10182;52.896;6.496;2023-05-19T11:23:02;102532.66;;;17.63;54.87
20043;BME280;10182;52.896;6.496;2023-05-19T11:28:06;102527.38;;;18.17;54.78
20043;BME280;10182;52.896;6.496;2023-05-19T11:33:08;102517.97;;;18.43;56.37
20043;BME280;10182;52.896;6.496;2023-05-19T11:38:10;102518.16;;;18.22;52.35
20043;BME280;10182;52.896;6.496;2023-05-19T11:43:16;102516.25;;;18.24;58.35
20043;BME280;10182;52.896;6.496;2023-05-19T11:48:19;102516.16;;;18.08;54.82
20043;BME280;10182;52.896;6.496;2023-05-19T11:53:21;102505.47;;;17.89;54.09
20043;BME280;10182;52.896;6.496;2023-05-19T11:58:47;102503.59;;;17.72;57.61
20043;BME280;10182;52.896;6.496;2023-05-19T12:03:49;102503.34;;;17.59;61.43
20043;BME280;10182;52.896;6.496;2023-05-19T12:08:51;102511.59;;;17.55;60.83
20043;BME280;10182;52.896;6.496;2023-05-19T12:13:57;102507.53;;;17.65;62.58
20043;BME280;10182;52.896;6.496;2023-05-19T12:18:59;102506.59;;;17.66;67.98
20043;BME280;10182;52.896;6.496;2023-05-19T12:24:01;102482.34;;;18.06;66.88
20043;BME280;10182;52.896;6.496;2023-05-19T12:29:05;102486.59;;;18.27;59.66
20043;BME280;10182;52.896;6.496;2023-05-19T12:34:07;102485.03;;;18.06;57.48
20043;BME280;10182;52.896;6.496;2023-05-19T12:39:09;102484.63;;;17.96;57.61
20043;BME280;10182;52.896;6.496;2023-05-19T12:44:15;102480.72;;;18.37;57.69
20043;BME280;10182;52.896;6.496;2023-05-19T12:49:17;102477.25;;;18.86;53.51
20043;BME280;10182;52.896;6.496;2023-05-19T12:54:19;102480.81;;;18.86;53.23
20043;BME280;10182;52.896;6.496;2023-05-19T12:59:23;102472.72;;;18.88;53.02
20043;BME280;10182;52.896;6.496;2023-05-19T13:04:26;102460.72;;;19.11;52.29
20043;BME280;10182;52.896;6.496;2023-05-19T13:09:28;102465.69;;;18.68;53.73
20043;BME280;10182;52.896;6.496;2023-05-19T13:14:35;102464.13;;;18.13;52.67
20043;BME280;10182;52.896;6.496;2023-05-19T13:19:39;102458.13;;;18.58;53.48
20043;BME280;10182;52.896;6.496;2023-05-19T13:24:41;102457.69;;;18.50;51.54
20043;BME280;10182;52.896;6.496;2023-05-19T13:29:44;102452.59;;;18.28;53.81
20043;BME280;10182;52.896;6.496;2023-05-19T13:34:46;102447.91;;;18.83;56.92
20043;BME280;10182;52.896;6.496;2023-05-19T13:39:48;102447.59;;;18.38;53.21
20043;BME280;10182;52.896;6.496;2023-05-19T13:44:54;102443.28;;;18.18;54.26
20043;BME280;10182;52.896;6.496;2023-05-19T13:49:56;102445.72;;;18.40;52.26
20043;BME280;10182;52.896;6.496;2023-05-19T13:54:58;102439.84;;;18.49;52.23
20043;BME280;10182;52.896;6.496;2023-05-19T14:00:01;102442.16;;;18.22;55.37
20043;BME280;10182;52.896;6.496;2023-05-19T14:05:05;102423.38;;;18.73;55.01
20043;BME280;10182;52.896;6.496;2023-05-19T14:10:08;102424.69;;;18.82;54.28
20043;BME280;10182;52.896;6.496;2023-05-19T14:15:11;102419.00;;;19.04;52.37
20043;BME280;10182;52.896;6.496;2023-05-19T14:20:13;102411.81;;;19.36;48.65
20043;BME280;10182;52.896;6.496;2023-05-19T14:25:15;102417.25;;;19.97;49.11
20043;BME280;10182;52.896;6.496;2023-05-19T14:30:18;102419.69;;;18.91;49.63
20043;BME280;10182;52.896;6.496;2023-05-19T14:35:20;102421.81;;;18.69;53.74
20043;BME280;10182;52.896;6.496;2023-05-19T14:40:22;102411.59;;;18.59;53.39
20043;BME280;10182;52.896;6.496;2023-05-19T14:45:25;102417.97;;;19.06;52.60
20043;BME280;10182;52.896;6.496;2023-05-19T14:50:27;102402.09;;;19.50;55.35
20043;BME280;10182;52.896;6.496;2023-05-19T14:55:28;102397.53;;;19.20;52.93
20043;BME280;10182;52.896;6.496;2023-05-19T15:00:31;102403.56;;;18.42;55.33
20043;BME280;10182;52.896;6.496;2023-05-19T15:05:33;102402.75;;;18.24;53.91
20043;BME280;10182;52.896;6.496;2023-05-19T15:10:35;102398.13;;;18.43;54.26
20043;BME280;10182;52.896;6.496;2023-05-19T15:15:38;102392.16;;;19.20;55.18
20043;BME280;10182;52.896;6.496;2023-05-19T15:20:40;102394.03;;;18.86;51.88
20043;BME280;10182;52.896;6.496;2023-05-19T15:25:41;102393.38;;;18.49;56.04
20043;BME280;10182;52.896;6.496;2023-05-19T15:30:46;102393.13;;;18.53;53.84
20043;BME280;10182;52.896;6.496;2023-05-19T15:35:48;102377.16;;;18.84;52.27
20043;BME280;10182;52.896;6.496;2023-05-19T15:40:51;102381.28;;;19.07;52.12
20043;BME280;10182;52.896;6.496;2023-05-19T15:45:54;102384.47;;;19.14;49.73
20043;BME280;10182;52.896;6.496;2023-05-19T15:50:56;102388.97;;;18.48;50.07
20043;BME280;10182;52.896;6.496;2023-05-19T15:55:57;102380.56;;;18.20;51.73
20043;BME280;10182;52.896;6.496;2023-05-19T16:01:01;102373.53;;;18.69;53.65
20043;BME280;10182;52.896;6.496;2023-05-19T16:06:03;102375.09;;;19.05;51.34
20043;BME280;10182;52.896;6.496;2023-05-19T16:11:05;102372.91;;;18.80;48.73
20043;BME280;10182;52.896;6.496;2023-05-19T16:16:08;102372.31;;;18.41;52.32
20043;BME280;10182;52.896;6.496;2023-05-19T16:21:10;102363.22;;;18.27;56.42
20043;BME280;10182;52.896;6.496;2023-05-19T16:26:11;102362.59;;;18.72;50.76
20043;BME280;10182;52.896;6.496;2023-05-19T16:31:15;102357.31;;;19.81;51.62
20043;BME280;10182;52.896;6.496;2023-05-19T16:36:17;102353.09;;;19.60;48.79
20043;BME280;10182;52.896;6.496;2023-05-19T16:41:19;102364.84;;;18.64;51.86
20043;BME280;10182;52.896;6.496;2023-05-19T16:46:22;102367.91;;;18.06;53.02
20043;BME280;10182;52.896;6.496;2023-05-19T16:51:23;102361.91;;;17.84;56.45
20043;BME280;10182;52.896;6.496;2023-05-19T16:56:25;102375.53;;;17.79;59.85
20043;BME280;10182;52.896;6.496;2023-05-19T17:01:28;102374.59;;;17.63;62.62
20043;BME280;10182;52.896;6.496;2023-05-19T17:06:30;102367.66;;;17.58;66.73
20043;BME280;10182;52.896;6.496;2023-05-19T17:11:32;102374.13;;;17.54;63.74
20043;BME280;10182;52.896;6.496;2023-05-19T17:16:35;102372.00;;;17.61;62.55
20043;BME280;10182;52.896;6.496;2023-05-19T17:21:37;102372.00;;;17.79;59.94
20043;BME280;10182;52.896;6.496;2023-05-19T17:26:38;102382.41;;;18.02;61.58
20043;BME280;10182;52.896;6.496;2023-05-19T17:31:42;102390.38;;;18.04;66.20
20043;BME280;10182;52.896;6.496;2023-05-19T17:36:43;102387.41;;;17.92;66.07
20043;BME280;10182;52.896;6.496;2023-05-19T17:41:45;102393.97;;;17.50;69.21
20043;BME280;10182;52.896;6.496;2023-05-19T17:46:48;102402.84;;;17.33;79.97
20043;BME280;10182;52.896;6.496;2023-05-19T17:51:51;102394.94;;;17.30;87.30
20043;BME280;10182;52.896;6.496;2023-05-19T17:56:53;102401.63;;;17.21;100.00
20043;BME280;10182;52.896;6.496;2023-05-19T18:02:00;102410.91;;;17.14;100.00
20043;BME280;10182;52.896;6.496;2023-05-19T18:07:03;102414.69;;;16.91;100.00
20043;BME280;10182;52.896;6.496;2023-05-19T18:12:05;102416.22;;;16.76;100.00
20043;BME280;10182;52.896;6.496;2023-05-19T18:17:08;102423.66;;;16.69;100.00
20043;BME280;10182;52.896;6.496;2023-05-19T18:22:10;102415.28;;;16.58;100.00
20043;BME280;10182;52.896;6.496;2023-05-19T18:27:14;102417.22;;;16.54;100.00
20043;BME280;10182;52.896;6.496;2023-05-19T18:32:17;102428.16;;;16.48;100.00
20043;BME280;10182;52.896;6.496;2023-05-19T18:37:19;102428.88;;;16.33;100.00
20043;BME280;10182;52.896;6.496;2023-05-19T18:42:21;102445.66;;;16.16;100.00
20043;BME280;10182;52.896;6.496;2023-05-19T18:47:24;102448.13;;;16.00;100.00
20043;BME280;10182;52.896;6.496;2023-05-19T18:52:25;102453.91;;;15.89;100.00
20043;BME280;10182;52.896;6.496;2023-05-19T18:57:28;102458.94;;;15.52;100.00
20043;BME280;10182;52.896;6.496;2023-05-19T19:02:31;102460.47;;;15.36;100.00
20043;BME280;10182;52.896;6.496;2023-05-19T19:07:33;102465.13;;;15.31;100.00
20043;BME280;10182;52.896;6.496;2023-05-19T19:12:34;102456.44;;;15.26;100.00
20043;BME280;10182;52.896;6.496;2023-05-19T19:17:38;102473.66;;;15.17;100.00
20043;BME280;10182;52.896;6.496;2023-05-19T19:22:40;102472.31;;;15.06;100.00
20043;BME280;10182;52.896;6.496;2023-05-19T19:27:42;102477.69;;;14.81;100.00
20043;BME280;10182;52.896;6.496;2023-05-19T19:32:45;102485.34;;;14.67;100.00
20043;BME280;10182;52.896;6.496;2023-05-19T19:37:49;102481.31;;;14.53;100.00
20043;BME280;10182;52.896;6.496;2023-05-19T19:42:51;102485.34;;;14.40;100.00
20043;BME280;10182;52.896;6.496;2023-05-19T19:47:55;102493.88;;;14.25;100.00
20043;BME280;10182;52.896;6.496;2023-05-19T19:52:56;102501.28;;;14.16;100.00
20043;BME280;10182;52.896;6.496;2023-05-19T19:57:58;102508.38;;;14.16;100.00
20043;BME280;10182;52.896;6.496;2023-05-19T20:03:01;102518.03;;;13.93;100.00
20043;BME280;10182;52.896;6.496;2023-05-19T20:08:03;102531.00;;;13.76;100.00
20043;BME280;10182;52.896;6.496;2023-05-19T20:13:05;102519.88;;;13.63;100.00
20043;BME280;10182;52.896;6.496;2023-05-19T20:18:08;102521.03;;;13.54;100.00
20043;BME280;10182;52.896;6.496;2023-05-19T20:23:11;102529.72;;;13.29;100.00
20043;BME280;10182;52.896;6.496;2023-05-19T20:28:15;102529.09;;;13.21;100.00
20043;BME280;10182;52.896;6.496;2023-05-19T20:33:18;102528.53;;;13.10;100.00
20043;BME280;10182;52.896;6.496;2023-05-19T20:38:20;102527.09;;;12.98;100.00
20043;BME280;10182;52.896;6.496;2023-05-19T20:43:22;102530.03;;;12.87;100.00
20043;BME280;10182;52.896;6.496;2023-05-19T20:48:25;102525.03;;;12.76;100.00
20043;BME280;10182;52.896;6.496;2023-05-19T20:53:26;102530.78;;;12.61;100.00
20043;BME280;10182;52.896;6.496;2023-05-19T20:58:28;102526.53;;;12.53;100.00
20043;BME280;10182;52.896;6.496;2023-05-19T21:03:32;102534.75;;;12.44;100.00
20043;BME280;10182;52.896;6.496;2023-05-19T21:08:34;102531.59;;;12.28;100.00
20043;BME280;10182;52.896;6.496;2023-05-19T21:13:38;102529.09;;;12.24;100.00
20043;BME280;10182;52.896;6.496;2023-05-19T21:18:41;102531.75;;;12.24;100.00
20043;BME280;10182;52.896;6.496;2023-05-19T21:23:43;102529.13;;;12.22;100.00
20043;BME280;10182;52.896;6.496;2023-05-19T21:28:46;102528.75;;;12.00;100.00
20043;BME280;10182;52.896;6.496;2023-05-19T21:33:49;102524.47;;;11.94;100.00
20043;BME280;10182;52.896;6.496;2023-05-19T21:38:51;102526.53;;;11.81;100.00
20043;BME280;10182;52.896;6.496;2023-05-19T21:43:52;102537.34;;;11.72;100.00
20043;BME280;10182;52.896;6.496;2023-05-19T21:48:56;102529.59;;;11.63;100.00
20043;BME280;10182;52.896;6.496;2023-05-19T21:53:57;102536.81;;;11.58;100.00
20043;BME280;10182;52.896;6.496;2023-05-19T21:58:59;102547.28;;;11.64;100.00
20043;BME280;10182;52.896;6.496;2023-05-19T22:04:21;102537.50;;;11.64;100.00
20043;BME280;10182;52.896;6.496;2023-05-19T22:09:22;102539.75;;;11.44;100.00
20043;BME280;10182;52.896;6.496;2023-05-19T22:14:25;102540.69;;;11.41;100.00
20043;BME280;10182;52.896;6.496;2023-05-19T22:19:28;102553.09;;;11.41;100.00
20043;BME280;10182;52.896;6.496;2023-05-19T22:24:30;102547.13;;;11.29;100.00
20043;BME280;10182;52.896;6.496;2023-05-19T22:29:31;102547.88;;;11.36;100.00
20043;BME280;10182;52.896;6.496;2023-05-19T22:34:35;102542.63;;;11.33;100.00
20043;BME280;10182;52.896;6.496;2023-05-19T22:39:36;102543.94;;;11.13;100.00
20043;BME280;10182;52.896;6.496;2023-05-19T22:44:39;102538.66;;;11.12;100.00
20043;BME280;10182;52.896;6.496;2023-05-19T22:49:42;102537.91;;;11.05;100.00
20043;BME280;10182;52.896;6.496;2023-05-19T22:54:43;102539.00;;;10.95;100.00
20043;BME280;10182;52.896;6.496;2023-05-19T22:59:45;102535.44;;;10.96;100.00
20043;BME280;10182;52.896;6.496;2023-05-19T23:04:48;102532.03;;;10.91;100.00
20043;BME280;10182;52.896;6.496;2023-05-19T23:09:50;102539.25;;;10.81;100.00
20043;BME280;10182;52.896;6.496;2023-05-19T23:14:52;102534.78;;;10.84;100.00
20043;BME280;10182;52.896;6.496;2023-05-19T23:19:55;102528.59;;;10.82;100.00
20043;BME280;10182;52.896;6.496;2023-05-19T23:24:56;102542.00;;;10.76;100.00
20043;BME280;10182;52.896;6.496;2023-05-19T23:30:01;102535.09;;;10.68;100.00
20043;BME280;10182;52.896;6.496;2023-05-19T23:35:12;102535.16;;;10.63;100.00
20043;BME280;10182;52.896;6.496;2023-05-19T23:40:17;102529.72;;;10.72;100.00
20043;BME280;10182;52.896;6.496;2023-05-19T23:45:18;102541.53;;;10.54;100.00
20043;BME280;10182;52.896;6.496;2023-05-19T23:50:22;102529.09;;;10.56;100.00
20043;BME280;10182;52.896;6.496;2023-05-19T23:55:23;102536.31;;;10.48;100.00
